sensor_id;sensor_type;location;lat;lon;timestamp;P1;durP1;ratioP1;P2;durP2;ratioP2
24153;SDS011;12312;53.362;-1.518;2024-03-08T00:00:34;25.73;;;9.27;;
24153;SDS011;12312;53.362;-1.518;2024-03-08T00:03:18;33.03;;;10.52;;
24153;SDS011;12312;53.362;-1.518;2024-03-08T00:06:02;27.15;;;10.05;;
24153;SDS011;12312;53.362;-1.518;2024-03-08T00:08:48;23.30;;;10.18;;
24153;SDS011;12312;53.362;-1.518;2024-03-08T00:11:32;30.45;;;10.68;;
24153;SDS011;12312;53.362;-1.518;2024-03-08T00:14:16;23.98;;;9.45;;
24153;SDS011;12312;53.362;-1.518;2024-03-08T00:17:00;27.85;;;10.05;;
24153;SDS011;12312;53.362;-1.518;2024-03-08T00:19:44;26.63;;;10.13;;
24153;SDS011;12312;53.362;-1.518;2024-03-08T00:22:28;25.45;;;11.10;;
24153;SDS011;12312;53.362;-1.518;2024-03-08T00:25:14;28.40;;;10.63;;
24153;SDS011;12312;53.362;-1.518;2024-03-08T00:28:02;24.10;;;10.82;;
24153;SDS011;12312;53.362;-1.518;2024-03-08T00:30:49;26.63;;;10.35;;
24153;SDS011;12312;53.362;-1.518;2024-03-08T00:33:33;26.23;;;11.23;;
24153;SDS011;12312;53.362;-1.518;2024-03-08T00:36:18;25.45;;;11.02;;
24153;SDS011;12312;53.362;-1.518;2024-03-08T00:39:04;28.80;;;11.13;;
24153;SDS011;12312;53.362;-1.518;2024-03-08T00:41:50;36.22;;;12.23;;
24153;SDS011;12312;53.362;-1.518;2024-03-08T00:44:34;30.88;;;11.32;;
24153;SDS011;12312;53.362;-1.518;2024-03-08T00:47:18;30.15;;;10.90;;
24153;SDS011;12312;53.362;-1.518;2024-03-08T00:50:03;37.05;;;12.85;;
24153;SDS011;12312;53.362;-1.518;2024-03-08T00:52:47;26.73;;;11.23;;
24153;SDS011;12312;53.362;-1.518;2024-03-08T00:55:31;34.10;;;12.65;;
24153;SDS011;12312;53.362;-1.518;2024-03-08T00:58:15;33.92;;;12.23;;
24153;SDS011;12312;53.362;-1.518;2024-03-08T01:00:59;31.20;;;11.55;;
24153;SDS011;12312;53.362;-1.518;2024-03-08T01:03:44;34.17;;;12.52;;
24153;SDS011;12312;53.362;-1.518;2024-03-08T01:06:28;32.05;;;12.65;;
24153;SDS011;12312;53.362;-1.518;2024-03-08T01:09:11;38.33;;;13.38;;
24153;SDS011;12312;53.362;-1.518;2024-03-08T01:11:56;30.52;;;11.55;;
24153;SDS011;12312;53.362;-1.518;2024-03-08T01:14:39;33.42;;;11.57;;
24153;SDS011;12312;53.362;-1.518;2024-03-08T01:17:23;36.30;;;13.52;;
24153;SDS011;12312;53.362;-1.518;2024-03-08T01:20:08;37.28;;;12.55;;
24153;SDS011;12312;53.362;-1.518;2024-03-08T01:22:54;32.17;;;13.30;;
24153;SDS011;12312;53.362;-1.518;2024-03-08T01:25:38;35.22;;;12.90;;
24153;SDS011;12312;53.362;-1.518;2024-03-08T01:28:25;35.35;;;14.73;;
24153;SDS011;12312;53.362;-1.518;2024-03-08T01:31:10;33.17;;;12.63;;
24153;SDS011;12312;53.362;-1.518;2024-03-08T01:33:54;38.63;;;13.40;;
24153;SDS011;12312;53.362;-1.518;2024-03-08T01:36:38;36.45;;;13.50;;
24153;SDS011;12312;53.362;-1.518;2024-03-08T01:39:22;42.20;;;14.50;;
24153;SDS011;12312;53.362;-1.518;2024-03-08T01:42:06;37.85;;;13.93;;
24153;SDS011;12312;53.362;-1.518;2024-03-08T01:44:50;39.50;;;14.35;;
24153;SDS011;12312;53.362;-1.518;2024-03-08T01:47:35;42.47;;;14.77;;
24153;SDS011;12312;53.362;-1.518;2024-03-08T01:50:19;41.58;;;14.27;;
24153;SDS011;12312;53.362;-1.518;2024-03-08T01:53:03;31.60;;;13.43;;
24153;SDS011;12312;53.362;-1.518;2024-03-08T01:55:49;41.30;;;14.82;;
24153;SDS011;12312;53.362;-1.518;2024-03-08T01:58:34;43.53;;;14.07;;
24153;SDS011;12312;53.362;-1.518;2024-03-08T02:01:19;41.95;;;15.00;;
24153;SDS011;12312;53.362;-1.518;2024-03-08T02:04:03;37.53;;;14.52;;
24153;SDS011;12312;53.362;-1.518;2024-03-08T02:06:49;31.63;;;14.00;;
24153;SDS011;12312;53.362;-1.518;2024-03-08T02:09:34;41.15;;;14.65;;
24153;SDS011;12312;53.362;-1.518;2024-03-08T02:12:18;42.58;;;15.20;;
24153;SDS011;12312;53.362;-1.518;2024-03-08T02:15:04;41.13;;;15.00;;
24153;SDS011;12312;53.362;-1.518;2024-03-08T02:17:50;39.85;;;15.05;;
24153;SDS011;12312;53.362;-1.518;2024-03-08T02:20:34;43.33;;;13.25;;
24153;SDS011;12312;53.362;-1.518;2024-03-08T02:23:21;32.08;;;14.93;;
24153;SDS011;12312;53.362;-1.518;2024-03-08T02:26:05;35.40;;;14.43;;
24153;SDS011;12312;53.362;-1.518;2024-03-08T02:28:50;37.30;;;13.50;;
24153;SDS011;12312;53.362;-1.518;2024-03-08T02:31:34;43.95;;;15.23;;
24153;SDS011;12312;53.362;-1.518;2024-03-08T02:34:18;36.70;;;13.65;;
24153;SDS011;12312;53.362;-1.518;2024-03-08T02:37:03;30.20;;;13.17;;
24153;SDS011;12312;53.362;-1.518;2024-03-08T02:39:47;38.97;;;14.43;;
24153;SDS011;12312;53.362;-1.518;2024-03-08T02:42:31;42.97;;;14.88;;
24153;SDS011;12312;53.362;-1.518;2024-03-08T02:45:16;34.67;;;13.25;;
24153;SDS011;12312;53.362;-1.518;2024-03-08T02:48:01;37.72;;;14.93;;
24153;SDS011;12312;53.362;-1.518;2024-03-08T02:50:45;34.42;;;12.80;;
24153;SDS011;12312;53.362;-1.518;2024-03-08T02:53:29;38.33;;;13.20;;
24153;SDS011;12312;53.362;-1.518;2024-03-08T02:56:14;37.28;;;14.48;;
24153;SDS011;12312;53.362;-1.518;2024-03-08T02:59:00;33.67;;;13.48;;
24153;SDS011;12312;53.362;-1.518;2024-03-08T03:01:44;33.22;;;13.70;;
24153;SDS011;12312;53.362;-1.518;2024-03-08T03:04:28;37.20;;;14.07;;
24153;SDS011;12312;53.362;-1.518;2024-03-08T03:07:12;34.97;;;13.35;;
24153;SDS011;12312;53.362;-1.518;2024-03-08T03:09:56;43.50;;;14.35;;
24153;SDS011;12312;53.362;-1.518;2024-03-08T03:12:40;42.13;;;14.70;;
24153;SDS011;12312;53.362;-1.518;2024-03-08T03:15:24;35.22;;;14.80;;
24153;SDS011;12312;53.362;-1.518;2024-03-08T03:18:08;44.25;;;16.02;;
24153;SDS011;12312;53.362;-1.518;2024-03-08T03:20:52;44.15;;;13.98;;
24153;SDS011;12312;53.362;-1.518;2024-03-08T03:23:36;37.60;;;13.65;;
24153;SDS011;12312;53.362;-1.518;2024-03-08T03:26:20;38.40;;;13.70;;
24153;SDS011;12312;53.362;-1.518;2024-03-08T03:29:05;43.83;;;14.38;;
24153;SDS011;12312;53.362;-1.518;2024-03-08T03:31:49;37.38;;;13.80;;
24153;SDS011;12312;53.362;-1.518;2024-03-08T03:34:34;42.47;;;15.30;;
24153;SDS011;12312;53.362;-1.518;2024-03-08T03:37:21;43.28;;;14.65;;
24153;SDS011;12312;53.362;-1.518;2024-03-08T03:40:06;42.40;;;15.25;;
24153;SDS011;12312;53.362;-1.518;2024-03-08T03:45:36;35.63;;;15.15;;
24153;SDS011;12312;53.362;-1.518;2024-03-08T03:48:21;37.47;;;15.30;;
24153;SDS011;12312;53.362;-1.518;2024-03-08T03:51:05;48.15;;;16.13;;
24153;SDS011;12312;53.362;-1.518;2024-03-08T03:53:49;37.25;;;14.27;;
24153;SDS011;12312;53.362;-1.518;2024-03-08T03:56:33;40.47;;;14.27;;
24153;SDS011;12312;53.362;-1.518;2024-03-08T03:59:17;45.17;;;16.63;;
24153;SDS011;12312;53.362;-1.518;2024-03-08T04:02:02;44.38;;;16.35;;
24153;SDS011;12312;53.362;-1.518;2024-03-08T04:04:47;45.50;;;16.65;;
24153;SDS011;12312;53.362;-1.518;2024-03-08T04:07:31;46.55;;;15.20;;
24153;SDS011;12312;53.362;-1.518;2024-03-08T04:10:16;41.30;;;16.20;;
24153;SDS011;12312;53.362;-1.518;2024-03-08T04:13:00;50.53;;;17.42;;
24153;SDS011;12312;53.362;-1.518;2024-03-08T04:15:44;45.60;;;17.42;;
24153;SDS011;12312;53.362;-1.518;2024-03-08T04:18:28;52.65;;;16.20;;
24153;SDS011;12312;53.362;-1.518;2024-03-08T04:21:12;52.22;;;15.18;;
24153;SDS011;12312;53.362;-1.518;2024-03-08T04:23:56;51.92;;;16.60;;
24153;SDS011;12312;53.362;-1.518;2024-03-08T04:26:40;48.63;;;17.77;;
24153;SDS011;12312;53.362;-1.518;2024-03-08T04:29:24;45.35;;;16.70;;
24153;SDS011;12312;53.362;-1.518;2024-03-08T04:32:09;47.03;;;16.30;;
24153;SDS011;12312;53.362;-1.518;2024-03-08T04:34:53;58.03;;;18.40;;
24153;SDS011;12312;53.362;-1.518;2024-03-08T04:37:37;46.80;;;17.52;;
24153;SDS011;12312;53.362;-1.518;2024-03-08T04:40:21;53.72;;;17.65;;
24153;SDS011;12312;53.362;-1.518;2024-03-08T04:43:05;47.92;;;17.73;;
24153;SDS011;12312;53.362;-1.518;2024-03-08T04:48:37;46.35;;;16.30;;
24153;SDS011;12312;53.362;-1.518;2024-03-08T04:51:21;50.33;;;16.98;;
24153;SDS011;12312;53.362;-1.518;2024-03-08T04:54:05;51.17;;;17.70;;
24153;SDS011;12312;53.362;-1.518;2024-03-08T04:56:49;51.58;;;17.08;;
24153;SDS011;12312;53.362;-1.518;2024-03-08T04:59:33;45.97;;;17.33;;
24153;SDS011;12312;53.362;-1.518;2024-03-08T05:02:18;45.03;;;16.17;;
24153;SDS011;12312;53.362;-1.518;2024-03-08T05:05:02;48.42;;;16.88;;
24153;SDS011;12312;53.362;-1.518;2024-03-08T05:07:46;48.40;;;16.75;;
24153;SDS011;12312;53.362;-1.518;2024-03-08T05:10:32;46.43;;;18.13;;
24153;SDS011;12312;53.362;-1.518;2024-03-08T05:13:16;52.70;;;19.13;;
24153;SDS011;12312;53.362;-1.518;2024-03-08T05:16:01;48.03;;;16.88;;
24153;SDS011;12312;53.362;-1.518;2024-03-08T05:18:46;48.53;;;18.60;;
24153;SDS011;12312;53.362;-1.518;2024-03-08T05:21:30;58.55;;;17.80;;
24153;SDS011;12312;53.362;-1.518;2024-03-08T05:24:14;55.97;;;19.60;;
24153;SDS011;12312;53.362;-1.518;2024-03-08T05:26:59;65.85;;;18.95;;
24153;SDS011;12312;53.362;-1.518;2024-03-08T05:29:44;52.22;;;19.20;;
24153;SDS011;12312;53.362;-1.518;2024-03-08T05:32:29;51.53;;;19.25;;
24153;SDS011;12312;53.362;-1.518;2024-03-08T05:35:14;54.67;;;18.27;;
24153;SDS011;12312;53.362;-1.518;2024-03-08T05:37:59;56.33;;;18.35;;
24153;SDS011;12312;53.362;-1.518;2024-03-08T05:40:43;45.53;;;17.52;;
24153;SDS011;12312;53.362;-1.518;2024-03-08T05:43:27;52.63;;;18.27;;
24153;SDS011;12312;53.362;-1.518;2024-03-08T05:46:15;53.55;;;17.70;;
24153;SDS011;12312;53.362;-1.518;2024-03-08T05:48:59;51.30;;;18.70;;
24153;SDS011;12312;53.362;-1.518;2024-03-08T05:51:44;52.25;;;17.92;;
24153;SDS011;12312;53.362;-1.518;2024-03-08T05:54:28;53.28;;;18.67;;
24153;SDS011;12312;53.362;-1.518;2024-03-08T05:57:12;65.25;;;20.38;;
24153;SDS011;12312;53.362;-1.518;2024-03-08T05:59:57;49.63;;;18.45;;
24153;SDS011;12312;53.362;-1.518;2024-03-08T06:02:41;61.67;;;20.38;;
24153;SDS011;12312;53.362;-1.518;2024-03-08T06:05:26;56.25;;;20.25;;
24153;SDS011;12312;53.362;-1.518;2024-03-08T06:08:10;58.53;;;20.98;;
24153;SDS011;12312;53.362;-1.518;2024-03-08T06:10:55;60.33;;;17.60;;
24153;SDS011;12312;53.362;-1.518;2024-03-08T06:13:39;66.03;;;19.95;;
24153;SDS011;12312;53.362;-1.518;2024-03-08T06:16:23;56.05;;;19.40;;
24153;SDS011;12312;53.362;-1.518;2024-03-08T06:19:07;57.92;;;19.45;;
24153;SDS011;12312;53.362;-1.518;2024-03-08T06:21:51;57.70;;;19.38;;
24153;SDS011;12312;53.362;-1.518;2024-03-08T06:24:35;54.22;;;19.58;;
24153;SDS011;12312;53.362;-1.518;2024-03-08T06:27:20;62.20;;;21.52;;
24153;SDS011;12312;53.362;-1.518;2024-03-08T06:30:05;59.30;;;19.75;;
24153;SDS011;12312;53.362;-1.518;2024-03-08T06:32:50;70.13;;;20.05;;
24153;SDS011;12312;53.362;-1.518;2024-03-08T06:35:35;59.70;;;21.05;;
24153;SDS011;12312;53.362;-1.518;2024-03-08T06:38:21;57.55;;;22.52;;
24153;SDS011;12312;53.362;-1.518;2024-03-08T06:41:05;58.45;;;19.88;;
24153;SDS011;12312;53.362;-1.518;2024-03-08T06:43:50;70.00;;;20.80;;
24153;SDS011;12312;53.362;-1.518;2024-03-08T06:46:35;60.08;;;19.63;;
24153;SDS011;12312;53.362;-1.518;2024-03-08T06:49:19;62.25;;;22.00;;
24153;SDS011;12312;53.362;-1.518;2024-03-08T06:52:04;65.57;;;21.90;;
24153;SDS011;12312;53.362;-1.518;2024-03-08T06:54:48;53.22;;;18.77;;
24153;SDS011;12312;53.362;-1.518;2024-03-08T06:57:32;58.45;;;22.48;;
24153;SDS011;12312;53.362;-1.518;2024-03-08T07:00:16;50.55;;;19.17;;
24153;SDS011;12312;53.362;-1.518;2024-03-08T07:03:02;59.05;;;20.05;;
24153;SDS011;12312;53.362;-1.518;2024-03-08T07:05:46;57.78;;;20.08;;
24153;SDS011;12312;53.362;-1.518;2024-03-08T07:08:33;59.35;;;20.98;;
24153;SDS011;12312;53.362;-1.518;2024-03-08T07:11:17;63.58;;;21.27;;
24153;SDS011;12312;53.362;-1.518;2024-03-08T07:14:02;69.95;;;20.88;;
24153;SDS011;12312;53.362;-1.518;2024-03-08T07:16:49;67.90;;;20.92;;
24153;SDS011;12312;53.362;-1.518;2024-03-08T07:19:35;68.70;;;22.23;;
24153;SDS011;12312;53.362;-1.518;2024-03-08T07:22:19;63.92;;;22.95;;
24153;SDS011;12312;53.362;-1.518;2024-03-08T07:25:03;51.85;;;21.33;;
24153;SDS011;12312;53.362;-1.518;2024-03-08T07:27:51;59.08;;;21.15;;
24153;SDS011;12312;53.362;-1.518;2024-03-08T07:30:36;60.87;;;21.37;;
24153;SDS011;12312;53.362;-1.518;2024-03-08T07:33:27;66.32;;;21.25;;
24153;SDS011;12312;53.362;-1.518;2024-03-08T07:36:10;63.78;;;22.05;;
24153;SDS011;12312;53.362;-1.518;2024-03-08T07:38:55;69.50;;;20.95;;
24153;SDS011;12312;53.362;-1.518;2024-03-08T07:41:39;55.97;;;20.10;;
24153;SDS011;12312;53.362;-1.518;2024-03-08T07:44:26;76.13;;;23.23;;
24153;SDS011;12312;53.362;-1.518;2024-03-08T07:47:10;52.63;;;20.73;;
24153;SDS011;12312;53.362;-1.518;2024-03-08T07:49:54;55.58;;;20.27;;
24153;SDS011;12312;53.362;-1.518;2024-03-08T07:52:38;61.72;;;20.75;;
24153;SDS011;12312;53.362;-1.518;2024-03-08T07:55:23;58.22;;;22.42;;
24153;SDS011;12312;53.362;-1.518;2024-03-08T07:58:07;54.67;;;20.17;;
24153;SDS011;12312;53.362;-1.518;2024-03-08T08:00:54;62.83;;;22.98;;
24153;SDS011;12312;53.362;-1.518;2024-03-08T08:03:38;57.38;;;21.25;;
24153;SDS011;12312;53.362;-1.518;2024-03-08T08:06:23;63.77;;;20.30;;
24153;SDS011;12312;53.362;-1.518;2024-03-08T08:09:07;57.03;;;20.92;;
24153;SDS011;12312;53.362;-1.518;2024-03-08T08:12:12;62.42;;;22.10;;
24153;SDS011;12312;53.362;-1.518;2024-03-08T08:14:56;73.50;;;23.05;;
24153;SDS011;12312;53.362;-1.518;2024-03-08T08:17:43;60.20;;;21.10;;
24153;SDS011;12312;53.362;-1.518;2024-03-08T08:20:28;69.60;;;22.05;;
24153;SDS011;12312;53.362;-1.518;2024-03-08T08:23:12;61.10;;;20.85;;
24153;SDS011;12312;53.362;-1.518;2024-03-08T08:25:57;59.00;;;21.17;;
24153;SDS011;12312;53.362;-1.518;2024-03-08T08:28:41;59.20;;;20.50;;
24153;SDS011;12312;53.362;-1.518;2024-03-08T08:31:27;59.85;;;19.73;;
24153;SDS011;12312;53.362;-1.518;2024-03-08T08:34:11;51.80;;;20.63;;
24153;SDS011;12312;53.362;-1.518;2024-03-08T08:36:57;59.08;;;20.50;;
24153;SDS011;12312;53.362;-1.518;2024-03-08T08:39:41;63.05;;;22.95;;
24153;SDS011;12312;53.362;-1.518;2024-03-08T08:42:25;55.78;;;19.75;;
24153;SDS011;12312;53.362;-1.518;2024-03-08T08:45:09;48.50;;;19.33;;
24153;SDS011;12312;53.362;-1.518;2024-03-08T08:47:54;55.88;;;21.73;;
24153;SDS011;12312;53.362;-1.518;2024-03-08T08:50:38;58.80;;;19.75;;
24153;SDS011;12312;53.362;-1.518;2024-03-08T08:53:23;46.05;;;18.67;;
24153;SDS011;12312;53.362;-1.518;2024-03-08T08:56:07;57.80;;;19.15;;
24153;SDS011;12312;53.362;-1.518;2024-03-08T08:58:52;52.88;;;19.40;;
24153;SDS011;12312;53.362;-1.518;2024-03-08T09:01:39;53.53;;;19.65;;
24153;SDS011;12312;53.362;-1.518;2024-03-08T09:04:24;53.05;;;17.85;;
24153;SDS011;12312;53.362;-1.518;2024-03-08T09:07:08;47.22;;;19.15;;
24153;SDS011;12312;53.362;-1.518;2024-03-08T09:09:52;45.28;;;17.73;;
24153;SDS011;12312;53.362;-1.518;2024-03-08T09:12:40;45.15;;;18.88;;
24153;SDS011;12312;53.362;-1.518;2024-03-08T09:15:25;51.88;;;19.35;;
24153;SDS011;12312;53.362;-1.518;2024-03-08T09:18:11;54.22;;;19.15;;
24153;SDS011;12312;53.362;-1.518;2024-03-08T09:20:56;52.40;;;17.02;;
24153;SDS011;12312;53.362;-1.518;2024-03-08T09:23:41;55.92;;;17.90;;
24153;SDS011;12312;53.362;-1.518;2024-03-08T09:29:11;46.67;;;17.00;;
24153;SDS011;12312;53.362;-1.518;2024-03-08T09:31:55;56.33;;;18.33;;
24153;SDS011;12312;53.362;-1.518;2024-03-08T09:34:39;39.75;;;17.58;;
24153;SDS011;12312;53.362;-1.518;2024-03-08T09:37:24;50.72;;;18.67;;
24153;SDS011;12312;53.362;-1.518;2024-03-08T09:40:07;46.67;;;17.80;;
24153;SDS011;12312;53.362;-1.518;2024-03-08T09:42:58;46.28;;;15.82;;
24153;SDS011;12312;53.362;-1.518;2024-03-08T09:45:43;48.63;;;17.60;;
24153;SDS011;12312;53.362;-1.518;2024-03-08T09:48:30;41.72;;;18.05;;
24153;SDS011;12312;53.362;-1.518;2024-03-08T09:51:14;49.45;;;17.05;;
24153;SDS011;12312;53.362;-1.518;2024-03-08T09:53:59;48.40;;;17.57;;
24153;SDS011;12312;53.362;-1.518;2024-03-08T09:56:43;42.75;;;17.73;;
24153;SDS011;12312;53.362;-1.518;2024-03-08T09:59:29;54.40;;;17.25;;
24153;SDS011;12312;53.362;-1.518;2024-03-08T10:02:22;46.28;;;16.75;;
24153;SDS011;12312;53.362;-1.518;2024-03-08T10:05:06;48.92;;;15.52;;
24153;SDS011;12312;53.362;-1.518;2024-03-08T10:07:51;43.73;;;17.27;;
24153;SDS011;12312;53.362;-1.518;2024-03-08T10:10:39;43.03;;;15.10;;
24153;SDS011;12312;53.362;-1.518;2024-03-08T10:13:24;32.65;;;15.18;;
24153;SDS011;12312;53.362;-1.518;2024-03-08T10:16:11;45.85;;;14.68;;
24153;SDS011;12312;53.362;-1.518;2024-03-08T10:18:56;43.75;;;16.60;;
24153;SDS011;12312;53.362;-1.518;2024-03-08T10:21:47;41.42;;;16.55;;
24153;SDS011;12312;53.362;-1.518;2024-03-08T10:24:33;41.70;;;14.65;;
24153;SDS011;12312;53.362;-1.518;2024-03-08T10:27:17;33.92;;;13.95;;
24153;SDS011;12312;53.362;-1.518;2024-03-08T10:30:02;42.25;;;15.52;;
24153;SDS011;12312;53.362;-1.518;2024-03-08T10:32:48;42.17;;;14.40;;
24153;SDS011;12312;53.362;-1.518;2024-03-08T10:35:32;40.53;;;14.82;;
24153;SDS011;12312;53.362;-1.518;2024-03-08T10:38:16;41.65;;;15.70;;
24153;SDS011;12312;53.362;-1.518;2024-03-08T10:41:04;48.55;;;16.90;;
24153;SDS011;12312;53.362;-1.518;2024-03-08T10:49:59;40.60;;;14.60;;
24153;SDS011;12312;53.362;-1.518;2024-03-08T10:52:51;39.45;;;16.45;;
24153;SDS011;12312;53.362;-1.518;2024-03-08T10:55:36;31.40;;;13.98;;
24153;SDS011;12312;53.362;-1.518;2024-03-08T10:58:25;34.45;;;13.80;;
24153;SDS011;12312;53.362;-1.518;2024-03-08T11:01:11;41.05;;;16.20;;
24153;SDS011;12312;53.362;-1.518;2024-03-08T11:03:55;35.53;;;14.80;;
24153;SDS011;12312;53.362;-1.518;2024-03-08T11:06:43;31.73;;;14.55;;
24153;SDS011;12312;53.362;-1.518;2024-03-08T11:15:12;36.03;;;12.57;;
24153;SDS011;12312;53.362;-1.518;2024-03-08T11:18:02;41.92;;;13.73;;
24153;SDS011;12312;53.362;-1.518;2024-03-08T11:20:48;40.63;;;14.63;;
24153;SDS011;12312;53.362;-1.518;2024-03-08T11:23:34;31.65;;;13.85;;
24153;SDS011;12312;53.362;-1.518;2024-03-08T11:26:19;40.25;;;14.38;;
24153;SDS011;12312;53.362;-1.518;2024-03-08T11:32:19;33.17;;;14.52;;
24153;SDS011;12312;53.362;-1.518;2024-03-08T11:35:05;35.15;;;14.75;;
24153;SDS011;12312;53.362;-1.518;2024-03-08T11:37:50;35.20;;;14.15;;
24153;SDS011;12312;53.362;-1.518;2024-03-08T11:40:35;30.00;;;14.68;;
24153;SDS011;12312;53.362;-1.518;2024-03-08T11:43:19;39.92;;;15.32;;
24153;SDS011;12312;53.362;-1.518;2024-03-08T11:46:13;28.67;;;12.70;;
24153;SDS011;12312;53.362;-1.518;2024-03-08T11:48:58;32.08;;;14.65;;
24153;SDS011;12312;53.362;-1.518;2024-03-08T11:51:44;31.13;;;14.23;;
24153;SDS011;12312;53.362;-1.518;2024-03-08T11:54:28;38.97;;;14.43;;
24153;SDS011;12312;53.362;-1.518;2024-03-08T11:57:13;45.00;;;15.82;;
24153;SDS011;12312;53.362;-1.518;2024-03-08T11:59:58;38.65;;;16.00;;
24153;SDS011;12312;53.362;-1.518;2024-03-08T12:03:11;39.70;;;15.75;;
24153;SDS011;12312;53.362;-1.518;2024-03-08T12:05:58;36.53;;;15.20;;
24153;SDS011;12312;53.362;-1.518;2024-03-08T12:08:43;39.70;;;14.43;;
24153;SDS011;12312;53.362;-1.518;2024-03-08T12:11:32;33.78;;;14.50;;
24153;SDS011;12312;53.362;-1.518;2024-03-08T12:14:16;36.75;;;14.77;;
24153;SDS011;12312;53.362;-1.518;2024-03-08T12:17:02;36.22;;;16.05;;
24153;SDS011;12312;53.362;-1.518;2024-03-08T12:19:46;40.50;;;15.50;;
24153;SDS011;12312;53.362;-1.518;2024-03-08T12:22:31;32.10;;;13.05;;
24153;SDS011;12312;53.362;-1.518;2024-03-08T12:25:15;31.20;;;13.85;;
24153;SDS011;12312;53.362;-1.518;2024-03-08T12:28:09;36.08;;;14.13;;
24153;SDS011;12312;53.362;-1.518;2024-03-08T12:30:55;35.03;;;14.88;;
24153;SDS011;12312;53.362;-1.518;2024-03-08T12:36:46;29.45;;;13.05;;
24153;SDS011;12312;53.362;-1.518;2024-03-08T12:39:31;27.30;;;13.85;;
24153;SDS011;12312;53.362;-1.518;2024-03-08T12:42:17;30.10;;;13.10;;
24153;SDS011;12312;53.362;-1.518;2024-03-08T12:45:02;27.55;;;11.68;;
24153;SDS011;12312;53.362;-1.518;2024-03-08T12:47:47;28.33;;;13.07;;
24153;SDS011;12312;53.362;-1.518;2024-03-08T12:50:31;30.35;;;13.52;;
24153;SDS011;12312;53.362;-1.518;2024-03-08T12:53:15;30.02;;;12.90;;
24153;SDS011;12312;53.362;-1.518;2024-03-08T12:55:59;31.85;;;12.90;;
24153;SDS011;12312;53.362;-1.518;2024-03-08T12:58:44;32.97;;;14.68;;
24153;SDS011;12312;53.362;-1.518;2024-03-08T13:01:28;30.77;;;12.55;;
24153;SDS011;12312;53.362;-1.518;2024-03-08T13:04:12;30.08;;;13.38;;
24153;SDS011;12312;53.362;-1.518;2024-03-08T13:06:57;26.35;;;13.05;;
24153;SDS011;12312;53.362;-1.518;2024-03-08T13:09:41;29.92;;;12.65;;
24153;SDS011;12312;53.362;-1.518;2024-03-08T13:12:26;29.48;;;13.73;;
24153;SDS011;12312;53.362;-1.518;2024-03-08T13:15:11;29.65;;;12.82;;
24153;SDS011;12312;53.362;-1.518;2024-03-08T13:17:59;35.60;;;14.07;;
24153;SDS011;12312;53.362;-1.518;2024-03-08T13:20:44;31.63;;;13.43;;
24153;SDS011;12312;53.362;-1.518;2024-03-08T13:23:39;31.42;;;13.60;;
24153;SDS011;12312;53.362;-1.518;2024-03-08T13:26:24;31.65;;;14.40;;
24153;SDS011;12312;53.362;-1.518;2024-03-08T13:29:12;34.53;;;14.02;;
24153;SDS011;12312;53.362;-1.518;2024-03-08T13:31:58;29.85;;;13.15;;
24153;SDS011;12312;53.362;-1.518;2024-03-08T13:34:45;25.65;;;12.90;;
24153;SDS011;12312;53.362;-1.518;2024-03-08T13:37:30;36.28;;;14.52;;
24153;SDS011;12312;53.362;-1.518;2024-03-08T13:40:17;30.67;;;12.93;;
24153;SDS011;12312;53.362;-1.518;2024-03-08T13:43:04;35.30;;;14.43;;
24153;SDS011;12312;53.362;-1.518;2024-03-08T13:45:48;34.78;;;13.65;;
24153;SDS011;12312;53.362;-1.518;2024-03-08T13:48:33;33.83;;;13.63;;
24153;SDS011;12312;53.362;-1.518;2024-03-08T13:51:18;33.65;;;14.55;;
24153;SDS011;12312;53.362;-1.518;2024-03-08T13:54:03;30.85;;;13.25;;
24153;SDS011;12312;53.362;-1.518;2024-03-08T13:56:50;32.53;;;13.75;;
24153;SDS011;12312;53.362;-1.518;2024-03-08T13:59:38;34.80;;;15.07;;
24153;SDS011;12312;53.362;-1.518;2024-03-08T14:02:21;37.63;;;14.60;;
24153;SDS011;12312;53.362;-1.518;2024-03-08T14:05:06;35.72;;;15.10;;
24153;SDS011;12312;53.362;-1.518;2024-03-08T14:07:52;33.25;;;14.60;;
24153;SDS011;12312;53.362;-1.518;2024-03-08T14:10:38;32.95;;;14.55;;
24153;SDS011;12312;53.362;-1.518;2024-03-08T14:13:22;36.38;;;14.70;;
24153;SDS011;12312;53.362;-1.518;2024-03-08T14:16:07;40.80;;;15.05;;
24153;SDS011;12312;53.362;-1.518;2024-03-08T14:18:54;36.17;;;14.23;;
24153;SDS011;12312;53.362;-1.518;2024-03-08T14:21:37;34.17;;;14.95;;
24153;SDS011;12312;53.362;-1.518;2024-03-08T14:24:23;33.58;;;14.82;;
24153;SDS011;12312;53.362;-1.518;2024-03-08T14:27:07;30.15;;;13.02;;
24153;SDS011;12312;53.362;-1.518;2024-03-08T14:32:39;34.25;;;14.07;;
24153;SDS011;12312;53.362;-1.518;2024-03-08T14:35:25;31.38;;;13.75;;
24153;SDS011;12312;53.362;-1.518;2024-03-08T14:38:09;34.83;;;14.50;;
24153;SDS011;12312;53.362;-1.518;2024-03-08T14:40:54;34.53;;;14.07;;
24153;SDS011;12312;53.362;-1.518;2024-03-08T14:43:38;34.80;;;15.23;;
24153;SDS011;12312;53.362;-1.518;2024-03-08T14:46:22;35.35;;;15.20;;
24153;SDS011;12312;53.362;-1.518;2024-03-08T14:49:07;30.45;;;12.82;;
24153;SDS011;12312;53.362;-1.518;2024-03-08T14:51:51;29.67;;;13.63;;
24153;SDS011;12312;53.362;-1.518;2024-03-08T14:54:35;34.85;;;14.63;;
24153;SDS011;12312;53.362;-1.518;2024-03-08T14:57:19;35.95;;;13.05;;
24153;SDS011;12312;53.362;-1.518;2024-03-08T15:00:03;34.70;;;13.57;;
24153;SDS011;12312;53.362;-1.518;2024-03-08T15:02:49;28.77;;;14.45;;
24153;SDS011;12312;53.362;-1.518;2024-03-08T15:05:37;42.00;;;14.23;;
24153;SDS011;12312;53.362;-1.518;2024-03-08T15:08:28;28.52;;;13.05;;
24153;SDS011;12312;53.362;-1.518;2024-03-08T15:11:12;29.05;;;14.00;;
24153;SDS011;12312;53.362;-1.518;2024-03-08T15:14:05;30.63;;;13.90;;
24153;SDS011;12312;53.362;-1.518;2024-03-08T15:16:54;31.05;;;12.73;;
24153;SDS011;12312;53.362;-1.518;2024-03-08T15:19:38;29.92;;;12.70;;
24153;SDS011;12312;53.362;-1.518;2024-03-08T15:22:21;28.20;;;12.00;;
24153;SDS011;12312;53.362;-1.518;2024-03-08T15:25:06;30.45;;;12.70;;
24153;SDS011;12312;53.362;-1.518;2024-03-08T15:27:54;35.40;;;13.07;;
24153;SDS011;12312;53.362;-1.518;2024-03-08T15:30:39;26.70;;;12.73;;
24153;SDS011;12312;53.362;-1.518;2024-03-08T15:33:23;32.47;;;13.38;;
24153;SDS011;12312;53.362;-1.518;2024-03-08T15:36:14;34.80;;;12.07;;
24153;SDS011;12312;53.362;-1.518;2024-03-08T15:38:59;31.83;;;12.55;;
24153;SDS011;12312;53.362;-1.518;2024-03-08T15:41:44;24.05;;;12.07;;
24153;SDS011;12312;53.362;-1.518;2024-03-08T15:44:28;31.80;;;13.48;;
24153;SDS011;12312;53.362;-1.518;2024-03-08T15:47:13;34.20;;;14.13;;
24153;SDS011;12312;53.362;-1.518;2024-03-08T15:49:57;30.23;;;13.30;;
24153;SDS011;12312;53.362;-1.518;2024-03-08T15:52:44;31.00;;;13.57;;
24153;SDS011;12312;53.362;-1.518;2024-03-08T15:55:30;35.53;;;13.80;;
24153;SDS011;12312;53.362;-1.518;2024-03-08T15:58:15;35.85;;;11.98;;
24153;SDS011;12312;53.362;-1.518;2024-03-08T16:01:00;32.77;;;12.97;;
24153;SDS011;12312;53.362;-1.518;2024-03-08T16:03:56;34.25;;;12.75;;
24153;SDS011;12312;53.362;-1.518;2024-03-08T16:06:42;27.05;;;12.43;;
24153;SDS011;12312;53.362;-1.518;2024-03-08T16:12:13;29.55;;;11.30;;
24153;SDS011;12312;53.362;-1.518;2024-03-08T16:14:57;35.90;;;13.00;;
24153;SDS011;12312;53.362;-1.518;2024-03-08T16:17:41;28.23;;;12.35;;
24153;SDS011;12312;53.362;-1.518;2024-03-08T16:20:25;37.78;;;13.32;;
24153;SDS011;12312;53.362;-1.518;2024-03-08T16:23:09;31.80;;;13.90;;